Wingerworth, United Kingdom
Current Conditions -  °F | °C
As of 9:50 AM on Sunday 23 Nov 2014 (Local Time) from EGNX Reporting Station
Light Rain Light Rain  
Wind Chill:   Ceiling: Unl
Heat Index:   Visibility: 6mi
Dew Point:   Wind: 2mph
Humidity: 100%   Direction: 270°W
Pressure: 30.03"   Gusts: NA
Location:  53.2°N, 1.44°W
Report Text: EGNX 230950Z 27002KT 9000 -RA FEW011 SCT044 07/07 Q1017
Loading
Personal Weather Stations






























Interactive Weather Map New forecast layout! Learn more

10-Day Weather Forecast

Advertisements
Track Severe Weather on mobile